»·PEaware :: N588UE KSLE-KSEA

N588UE :: KSLE-KSEA

FLIGHT INFORMATION

Flight Status: Arrived
Operator: Privately registered:
United States
More flights under this callsign
Pilot: Peter H. (12565)
Aircraft: PIPER PA-28R-201 ARROW
(P28R)
More flights by this aircraft type
Origin: KSLE McNary
United States
Destination: KSEA Seattle-Tacoma Intl
United States
More flights between these airports :: More routes between these airports
Route: GNNET V23 BTG V495 SEA
File this flight plan on PilotEdge
Remarks:
Altitude:
(Current/Filed)
8,000ft
Speed:
(Current/Filed)
140kts
Departed: 19-Feb-17 01:21 PM
Arrived: 19-Feb-17 03:05 PM
Distance/Time
Traveled:
156nm/1:44
Distance/Time
To Go:
Arrived

Flight Plot

Page will automatically refresh every two minutes.

Flight plan parsing failed; only flown route is shown


Map Options




Map Legend


Flown Route
Filed Route
Departure Airport
Arrival Airport
Navaid (VOR, NDB)
Fix

Horizontal Profiles

Position Reports

Time Latitude Longitude Heading Altitude Ground
Speed
19-Feb-17 13:13 44.906481 -123.006388 1 206ft 0kts
19-Feb-17 13:15 44.906481 -123.006388 1 206ft 0kts
19-Feb-17 13:16 44.906481 -123.006388 1 206ft 0kts
19-Feb-17 13:17 44.906481 -123.006388 1 206ft 0kts
19-Feb-17 13:18 44.906481 -123.006388 1 206ft 0kts
19-Feb-17 13:19 44.906621 -123.006165 85 205ft 14kts
19-Feb-17 13:20 44.903450 -123.005537 156 208ft 10kts
19-Feb-17 13:21 44.902509 -123.003580 6 209ft 0kts
19-Feb-17 13:22 44.919693 -123.002312 3 774ft 98kts
19-Feb-17 13:23 44.941427 -122.990300 49 1781ft 113kts
19-Feb-17 13:24 44.966365 -122.960998 36 2629ft 137kts
19-Feb-17 13:25 44.998733 -122.932130 35 3502ft 149kts
19-Feb-17 13:26 45.034863 -122.901978 34 4397ft 156kts
19-Feb-17 13:27 45.071558 -122.872359 35 5275ft 156kts
19-Feb-17 13:28 45.105963 -122.845261 22 6097ft 156kts
19-Feb-17 13:29 45.141641 -122.831090 17 6871ft 154kts
19-Feb-17 13:30 45.169699 -122.820218 18 7488ft 153kts
19-Feb-17 13:31 45.200779 -122.808124 18 7645ft 154kts
19-Feb-17 13:32 45.235685 -122.794476 18 7644ft 162kts
19-Feb-17 13:33 45.265956 -122.782617 18 7644ft 169kts
19-Feb-17 13:34 45.299971 -122.769296 18 7644ft 172kts
19-Feb-17 13:35 45.332196 -122.756654 18 7644ft 173kts
19-Feb-17 13:36 45.364420 -122.744003 18 7644ft 173kts
19-Feb-17 13:37 45.394555 -122.732156 18 7644ft 173kts
19-Feb-17 13:38 45.429081 -122.718544 18 7624ft 178kts
19-Feb-17 13:39 45.467783 -122.703277 18 7618ft 182kts
19-Feb-17 13:40 45.508516 -122.687201 18 7618ft 183kts
19-Feb-17 13:41 45.549243 -122.671098 18 7618ft 183kts
19-Feb-17 13:42 45.591316 -122.654435 18 7610ft 181kts
19-Feb-17 13:43 45.623918 -122.641507 18 7611ft 181kts
19-Feb-17 13:44 45.651945 -122.630380 18 7611ft 181kts
19-Feb-17 13:45 45.685642 -122.616980 18 7611ft 181kts
19-Feb-17 13:46 45.715373 -122.605145 18 7611ft 181kts
19-Feb-17 13:47 45.743859 -122.593808 18 7624ft 180kts
19-Feb-17 13:48 45.773829 -122.587951 8 7995ft 166kts
19-Feb-17 13:49 45.797950 -122.584067 8 8006ft 175kts
19-Feb-17 13:50 45.823816 -122.579884 8 8006ft 179kts
19-Feb-17 13:51 45.849485 -122.575719 8 8006ft 180kts
19-Feb-17 13:52 45.877048 -122.571241 8 8006ft 181kts
19-Feb-17 13:53 45.902958 -122.567025 8 8006ft 181kts
19-Feb-17 13:54 45.927041 -122.563091 8 8006ft 181kts
19-Feb-17 13:55 45.952271 -122.558969 8 8006ft 181kts
19-Feb-17 13:56 45.982334 -122.554054 8 8007ft 181kts
19-Feb-17 13:57 46.012570 -122.549118 8 8007ft 181kts
19-Feb-17 13:58 46.045132 -122.543775 8 8007ft 181kts
19-Feb-17 13:59 46.071970 -122.539370 8 8007ft 181kts
19-Feb-17 14:00 46.101686 -122.534490 8 8008ft 181kts
19-Feb-17 14:01 46.131993 -122.529511 8 8008ft 181kts
19-Feb-17 14:02 46.162382 -122.524516 8 8008ft 181kts
19-Feb-17 14:03 46.191887 -122.519657 8 8008ft 181kts
19-Feb-17 14:04 46.219232 -122.515153 8 8011ft 174kts
19-Feb-17 14:05 46.249266 -122.510231 9 8006ft 161kts
19-Feb-17 14:06 46.279442 -122.505189 9 8007ft 162kts
19-Feb-17 14:07 46.306400 -122.500680 8 8006ft 159kts
19-Feb-17 14:08 46.332212 -122.496423 9 8006ft 158kts
19-Feb-17 14:09 46.358102 -122.492089 8 8007ft 157kts
19-Feb-17 14:10 46.388110 -122.487132 8 8006ft 157kts
19-Feb-17 14:11 46.416654 -122.482407 8 7983ft 158kts
19-Feb-17 14:11 46.442340 -122.478144 8 7956ft 158kts
19-Feb-17 14:12 46.472282 -122.473164 8 7952ft 158kts
19-Feb-17 14:13 46.504616 -122.467776 8 7952ft 157kts
19-Feb-17 14:14 46.534743 -122.462749 8 7952ft 157kts
19-Feb-17 14:15 46.572981 -122.456360 8 7954ft 158kts
19-Feb-17 14:17 46.614791 -122.449365 8 7940ft 160kts
19-Feb-17 14:18 46.647209 -122.443936 8 7927ft 159kts
19-Feb-17 14:18 46.671736 -122.439824 8 7926ft 159kts
19-Feb-17 14:19 46.703135 -122.434708 10 7932ft 158kts
19-Feb-17 14:21 46.736459 -122.428914 8 7926ft 159kts
19-Feb-17 14:21 46.760555 -122.424883 8 7926ft 159kts
19-Feb-17 14:22 46.793452 -122.419352 8 7926ft 159kts
19-Feb-17 14:23 46.830723 -122.413070 8 7949ft 158kts
19-Feb-17 14:24 46.873470 -122.413632 359 7952ft 158kts
19-Feb-17 14:25 46.914393 -122.416919 359 7953ft 156kts
19-Feb-17 14:26 46.951990 -122.421681 357 7953ft 156kts
19-Feb-17 14:27 46.990228 -122.426787 357 7953ft 156kts
19-Feb-17 14:28 47.032309 -122.432401 357 7953ft 156kts
19-Feb-17 14:29 47.071897 -122.438593 357 7953ft 157kts
19-Feb-17 14:30 47.110571 -122.443918 357 7953ft 145kts
19-Feb-17 14:31 47.147070 -122.448920 357 7953ft 148kts
19-Feb-17 14:32 47.178607 -122.453226 357 7952ft 148kts
19-Feb-17 14:33 47.209669 -122.457461 357 7952ft 148kts
19-Feb-17 14:34 47.245476 -122.462272 357 7953ft 156kts
19-Feb-17 14:35 47.280741 -122.466956 357 7952ft 152kts
19-Feb-17 14:36 47.310754 -122.470979 357 7952ft 151kts
19-Feb-17 14:37 47.334203 -122.474126 357 7952ft 151kts
19-Feb-17 14:38 47.367472 -122.478572 357 7953ft 154kts
19-Feb-17 14:39 47.398094 -122.483365 356 7950ft 150kts
19-Feb-17 14:40 47.425630 -122.487375 357 7953ft 151kts
19-Feb-17 14:41 47.457908 -122.491704 357 7952ft 148kts
19-Feb-17 14:42 47.489900 -122.496016 357 7952ft 147kts
19-Feb-17 14:43 47.522595 -122.500420 357 7952ft 147kts
19-Feb-17 14:44 47.557253 -122.505084 357 7953ft 147kts
19-Feb-17 14:45 47.586958 -122.509074 357 7953ft 147kts
19-Feb-17 14:46 47.613149 -122.512588 357 7953ft 147kts
19-Feb-17 14:47 47.636790 -122.515757 357 7953ft 147kts
19-Feb-17 14:48 47.661628 -122.519084 357 7953ft 147kts
19-Feb-17 14:49 47.686246 -122.522319 357 7953ft 147kts
19-Feb-17 14:50 47.713000 -122.525809 357 7953ft 147kts
19-Feb-17 14:51 47.738954 -122.528793 13 7926ft 142kts
19-Feb-17 14:52 47.745509 -122.488099 102 6765ft 155kts
19-Feb-17 14:53 47.736211 -122.440356 102 5366ft 128kts
19-Feb-17 14:54 47.726301 -122.391234 103 3970ft 132kts
19-Feb-17 14:55 47.714051 -122.356676 140 4073ft 114kts
19-Feb-17 14:56 47.687223 -122.329855 141 4071ft 137kts
19-Feb-17 14:57 47.653643 -122.316373 175 4017ft 126kts
19-Feb-17 14:58 47.623477 -122.316547 171 3506ft 114kts
19-Feb-17 14:59 47.595515 -122.316831 176 2825ft 106kts
19-Feb-17 15:00 47.569218 -122.321162 177 2331ft 83kts
19-Feb-17 15:01 47.543326 -122.318904 175 1949ft 97kts
19-Feb-17 15:02 47.516107 -122.317750 187 1442ft 102kts
19-Feb-17 15:03 47.489978 -122.318437 177 900ft 91kts
19-Feb-17 15:04 47.466510 -122.317927 178 404ft 78kts
19-Feb-17 15:05 47.459195 -122.316804 40 340ft 3kts

Navigation Log

Ident Type
Flight plan parsing failed, navigation log unavailable